createdAt,value
2022-12-09T00:01:56.040Z,30.40
2022-12-09T00:04:23.922Z,28.47
2022-12-09T00:06:53.161Z,30.83
2022-12-09T00:09:20.731Z,29.27
2022-12-09T00:11:48.214Z,29.87
2022-12-09T00:14:15.771Z,29.67
2022-12-09T00:16:43.600Z,30.70
2022-12-09T00:19:11.357Z,29.00
2022-12-09T00:21:39.023Z,28.07
2022-12-09T00:24:08.985Z,28.87
2022-12-09T00:26:36.611Z,29.07
2022-12-09T00:29:05.190Z,30.63
2022-12-09T00:31:35.637Z,30.33
2022-12-09T00:34:04.953Z,29.40
2022-12-09T00:36:32.928Z,30.33
2022-12-09T00:39:01.011Z,28.77
2022-12-09T00:41:30.243Z,28.80
2022-12-09T00:43:58.363Z,30.83
2022-12-09T00:46:26.269Z,29.70
2022-12-09T00:48:54.349Z,30.97
2022-12-09T00:51:24.194Z,29.27
2022-12-09T00:53:54.688Z,29.53
2022-12-09T00:56:22.922Z,29.60
2022-12-09T00:58:51.642Z,29.63
2022-12-09T01:01:19.271Z,28.50
2022-12-09T01:03:46.949Z,29.30
2022-12-09T01:06:19.667Z,29.50
2022-12-09T01:08:47.214Z,29.90
2022-12-09T01:11:17.892Z,29.27
2022-12-09T01:13:47.097Z,28.70
2022-12-09T01:16:17.272Z,29.27
2022-12-09T01:18:45.625Z,27.70
2022-12-09T01:21:13.937Z,29.13
2022-12-09T01:23:41.836Z,27.90
2022-12-09T01:26:09.954Z,26.20
2022-12-09T01:28:39.116Z,28.23
2022-12-09T01:31:08.201Z,30.30
2022-12-09T01:33:37.079Z,30.60
2022-12-09T01:36:06.767Z,29.80
2022-12-09T01:38:34.295Z,30.33
2022-12-09T01:41:06.612Z,30.03
2022-12-09T01:43:34.112Z,28.57
2022-12-09T01:46:01.687Z,27.97
2022-12-09T01:48:31.620Z,28.43
2022-12-09T01:51:02.678Z,28.67
2022-12-09T01:53:32.366Z,30.50
2022-12-09T01:56:03.898Z,29.13
2022-12-09T01:58:32.624Z,28.23
2022-12-09T02:01:00.093Z,27.77
2022-12-09T02:03:27.863Z,27.17
2022-12-09T02:05:56.168Z,25.97
2022-12-09T02:08:25.141Z,25.73
2022-12-09T02:11:02.413Z,24.40
2022-12-09T02:13:34.447Z,23.77
2022-12-09T02:16:04.195Z,22.87
2022-12-09T02:18:37.989Z,24.10
2022-12-09T02:21:10.021Z,23.13
2022-12-09T02:23:42.607Z,22.63
2022-12-09T02:26:18.123Z,20.93
2022-12-09T02:29:17.247Z,19.77
2022-12-09T02:31:55.879Z,19.20
2022-12-09T02:34:30.110Z,19.60
2022-12-09T02:37:05.782Z,19.57
2022-12-09T02:39:46.535Z,17.20
2022-12-09T02:42:18.185Z,17.70
2022-12-09T02:44:49.487Z,18.30
2022-12-09T02:47:21.327Z,18.20
2022-12-09T02:49:52.514Z,17.80
2022-12-09T02:52:21.708Z,19.30
2022-12-09T02:54:49.559Z,18.87
2022-12-09T02:57:19.414Z,17.50
2022-12-09T02:59:46.983Z,16.53
2022-12-09T03:02:20.105Z,17.67
2022-12-09T03:04:55.204Z,17.47
2022-12-09T03:07:26.867Z,16.97
2022-12-09T03:10:01.673Z,17.17
2022-12-09T03:12:31.663Z,16.40
2022-12-09T03:14:59.571Z,16.50
2022-12-09T03:17:31.026Z,16.00
2022-12-09T03:20:02.087Z,16.93
2022-12-09T03:22:30.822Z,17.00
2022-12-09T03:25:03.541Z,17.47
2022-12-09T03:27:37.125Z,17.53
2022-12-09T03:30:06.670Z,17.73
2022-12-09T03:32:36.382Z,18.37
2022-12-09T03:35:10.715Z,18.57
2022-12-09T03:37:39.965Z,18.37
2022-12-09T03:40:14.176Z,18.70
2022-12-09T03:42:46.864Z,18.37
2022-12-09T03:45:16.672Z,18.00
2022-12-09T03:47:44.479Z,18.87
2022-12-09T03:50:14.100Z,19.07
2022-12-09T03:52:43.751Z,18.43
2022-12-09T03:55:19.823Z,18.60
2022-12-09T03:57:50.404Z,19.13
2022-12-09T04:00:18.911Z,18.57
2022-12-09T04:02:47.172Z,18.20
2022-12-09T04:05:16.205Z,19.40
2022-12-09T04:07:44.120Z,19.83
2022-12-09T04:10:13.885Z,19.17
2022-12-09T04:12:42.251Z,20.23
2022-12-09T04:15:10.579Z,20.37
2022-12-09T04:17:38.523Z,19.63
2022-12-09T04:20:07.950Z,19.13
2022-12-09T04:22:36.990Z,18.60
2022-12-09T04:25:04.755Z,18.60
2022-12-09T04:27:32.186Z,18.70
2022-12-09T04:29:59.886Z,18.73
2022-12-09T04:32:27.510Z,18.17
2022-12-09T04:34:55.052Z,18.37
2022-12-09T04:37:22.626Z,17.83
2022-12-09T04:39:51.482Z,18.50
2022-12-09T04:42:18.931Z,18.13
2022-12-09T04:44:46.478Z,18.13
2022-12-09T04:47:14.162Z,17.53
2022-12-09T04:49:41.615Z,17.53
2022-12-09T04:52:09.282Z,17.87
2022-12-09T04:54:36.854Z,18.87
2022-12-09T04:57:05.904Z,18.20
2022-12-09T04:59:33.702Z,18.73
2022-12-09T05:02:01.678Z,19.03
2022-12-09T05:04:29.682Z,19.50
2022-12-09T05:06:58.675Z,17.57
2022-12-09T05:09:26.465Z,17.93
2022-12-09T05:11:54.334Z,18.37
2022-12-09T05:14:23.630Z,18.83
2022-12-09T05:16:53.101Z,18.97
2022-12-09T05:19:21.077Z,18.37
2022-12-09T05:21:48.756Z,18.50
2022-12-09T05:24:16.684Z,18.67
2022-12-09T05:26:44.170Z,18.97
2022-12-09T05:29:11.881Z,18.13
2022-12-09T05:31:41.885Z,19.07
2022-12-09T05:34:09.494Z,18.00
2022-12-09T05:36:38.215Z,18.50
2022-12-09T05:39:06.081Z,17.53
2022-12-09T05:41:33.843Z,18.27
2022-12-09T05:44:01.683Z,18.60
2022-12-09T05:46:35.287Z,19.10
2022-12-09T05:49:04.825Z,18.83
2022-12-09T05:51:32.958Z,19.33
2022-12-09T05:54:02.139Z,18.70
2022-12-09T05:56:30.042Z,17.93
2022-12-09T05:58:57.811Z,18.40
2022-12-09T06:01:26.489Z,18.67
2022-12-09T06:03:55.419Z,18.73
2022-12-09T06:06:27.882Z,18.97
2022-12-09T06:08:57.357Z,18.53
2022-12-09T06:11:26.063Z,18.43
2022-12-09T06:13:54.719Z,19.03
2022-12-09T06:16:23.408Z,19.97
2022-12-09T06:18:51.530Z,18.77
2022-12-09T06:21:20.709Z,18.77
2022-12-09T06:23:50.786Z,19.63
2022-12-09T06:26:21.539Z,19.47
2022-12-09T06:28:49.533Z,19.80
2022-12-09T06:31:17.517Z,19.43
2022-12-09T06:33:54.975Z,18.87
2022-12-09T06:36:24.356Z,19.67
2022-12-09T06:38:53.372Z,19.93
2022-12-09T06:41:21.295Z,19.40
2022-12-09T06:43:48.948Z,19.90
2022-12-09T06:46:17.925Z,19.10
2022-12-09T06:48:45.819Z,18.87
2022-12-09T06:51:13.789Z,20.10
2022-12-09T06:53:41.564Z,19.27
2022-12-09T06:56:13.315Z,18.67
2022-12-09T06:58:42.230Z,18.50
2022-12-09T07:01:13.847Z,19.33
2022-12-09T07:03:42.762Z,17.83
2022-12-09T07:06:17.991Z,17.87
2022-12-09T07:08:45.598Z,19.63
2022-12-09T07:11:14.780Z,19.00
2022-12-09T07:13:42.372Z,19.70
2022-12-09T07:16:10.297Z,19.80
2022-12-09T07:18:38.179Z,20.37
2022-12-09T07:21:10.067Z,20.60
2022-12-09T07:23:37.827Z,18.20
2022-12-09T07:26:06.904Z,18.57
2022-12-09T07:28:36.432Z,19.80
2022-12-09T07:31:04.555Z,18.40
2022-12-09T07:33:32.736Z,18.30
2022-12-09T07:36:01.140Z,19.03
2022-12-09T07:38:28.657Z,18.60
2022-12-09T07:40:56.155Z,18.80
2022-12-09T07:43:23.729Z,19.13
2022-12-09T07:45:52.770Z,20.03
2022-12-09T07:48:20.802Z,19.10
2022-12-09T07:50:48.526Z,18.13
2022-12-09T07:53:16.044Z,18.60
2022-12-09T07:55:43.477Z,18.30
2022-12-09T07:58:11.260Z,17.53
2022-12-09T08:00:39.099Z,16.77
2022-12-09T08:03:08.134Z,17.50
2022-12-09T08:05:35.792Z,17.50
2022-12-09T08:08:04.346Z,17.83
2022-12-09T08:10:32.472Z,19.07
2022-12-09T08:13:00.029Z,18.20
2022-12-09T08:15:27.909Z,19.03
2022-12-09T08:17:55.948Z,21.90
2022-12-09T08:20:29.108Z,21.30
2022-12-09T08:22:57.242Z,21.50
2022-12-09T08:25:25.107Z,23.03
2022-12-09T08:27:52.829Z,23.43
2022-12-09T08:30:20.657Z,23.00
2022-12-09T08:32:48.678Z,25.70
2022-12-09T08:35:16.878Z,24.90
2022-12-09T08:38:25.167Z,26.30
2022-12-09T08:40:52.958Z,25.77
2022-12-09T08:43:20.856Z,25.07
2022-12-09T08:45:48.593Z,26.57
2022-12-09T08:48:16.680Z,25.60
2022-12-09T08:50:44.184Z,25.63
2022-12-09T08:53:11.970Z,23.40
2022-12-09T08:55:42.190Z,23.73
2022-12-09T08:58:09.851Z,25.07
2022-12-09T09:00:37.269Z,24.43
2022-12-09T09:03:05.843Z,25.83
2022-12-09T09:05:34.014Z,26.00
2022-12-09T09:08:01.735Z,25.70
2022-12-09T09:10:30.578Z,26.27
2022-12-09T09:13:00.241Z,24.23
2022-12-09T09:15:27.837Z,30.83
2022-12-09T09:17:55.924Z,26.10
2022-12-09T09:20:24.026Z,23.93
2022-12-09T09:22:51.915Z,24.80
2022-12-09T09:25:20.527Z,23.90
2022-12-09T09:27:48.443Z,24.17
2022-12-09T09:30:17.780Z,25.27
2022-12-09T09:32:45.384Z,23.43
2022-12-09T09:35:13.594Z,24.63
2022-12-09T09:37:41.182Z,25.00
2022-12-09T09:40:11.562Z,25.00
2022-12-09T09:42:45.904Z,26.63
2022-12-09T09:45:17.918Z,25.90
2022-12-09T09:47:49.489Z,27.87
2022-12-09T09:50:30.936Z,27.60
2022-12-09T09:52:59.186Z,28.63
2022-12-09T09:55:34.765Z,24.47
2022-12-09T09:58:13.669Z,24.33
2022-12-09T10:00:46.117Z,25.20
2022-12-09T10:03:17.342Z,25.83
2022-12-09T10:05:51.164Z,24.43
2022-12-09T10:08:27.153Z,24.90
2022-12-09T10:11:03.912Z,24.70
2022-12-09T10:13:45.153Z,25.07
2022-12-09T10:16:16.614Z,23.83
2022-12-09T10:19:04.225Z,26.30
2022-12-09T10:21:38.708Z,27.00
2022-12-09T10:24:16.746Z,28.70
2022-12-09T10:26:50.232Z,26.63
2022-12-09T10:29:21.330Z,25.07
2022-12-09T10:31:50.860Z,25.27
2022-12-09T10:34:19.339Z,25.50
2022-12-09T10:36:48.035Z,25.10
2022-12-09T10:39:16.495Z,25.93
2022-12-09T10:42:03.904Z,25.13
2022-12-09T10:44:31.967Z,26.53
2022-12-09T10:47:04.218Z,25.17
2022-12-09T10:49:33.113Z,24.93
2022-12-09T10:52:01.143Z,25.53
2022-12-09T10:54:35.794Z,27.30
2022-12-09T10:57:08.902Z,25.97
2022-12-09T10:59:37.485Z,26.60
2022-12-09T11:02:22.979Z,27.43
2022-12-09T11:04:51.324Z,26.47
2022-12-09T11:07:20.913Z,25.63
2022-12-09T11:09:50.023Z,26.33
2022-12-09T11:12:21.194Z,26.50
2022-12-09T11:14:53.341Z,26.80
2022-12-09T11:17:24.328Z,26.93
2022-12-09T11:19:54.230Z,27.13
2022-12-09T11:22:34.516Z,27.53
2022-12-09T11:25:18.357Z,26.57
2022-12-09T11:27:50.887Z,27.43
2022-12-09T11:30:20.544Z,25.93
2022-12-09T11:33:21.264Z,27.63
2022-12-09T11:35:56.071Z,26.20
2022-12-09T11:38:32.839Z,26.77
2022-12-09T11:41:02.935Z,26.77
2022-12-09T11:43:32.930Z,26.17
2022-12-09T11:46:00.515Z,27.30
2022-12-09T11:48:36.186Z,26.03
2022-12-09T11:51:07.796Z,27.53
2022-12-09T11:53:40.562Z,26.57
2022-12-09T11:56:14.640Z,26.77
2022-12-09T11:58:45.971Z,28.20
2022-12-09T12:01:17.053Z,27.07
2022-12-09T12:03:49.274Z,26.83
2022-12-09T12:06:20.472Z,27.93
2022-12-09T12:08:50.340Z,28.50
2022-12-09T12:11:19.803Z,28.47
2022-12-09T12:13:48.879Z,29.13
2022-12-09T12:16:39.259Z,28.50
2022-12-09T12:19:15.720Z,29.53
2022-12-09T12:21:54.785Z,27.60
2022-12-09T12:24:59.231Z,28.63
2022-12-09T12:27:36.754Z,29.13
2022-12-09T12:30:07.239Z,28.17
2022-12-09T12:32:43.029Z,29.67
2022-12-09T12:35:27.327Z,32.03
2022-12-09T12:38:01.775Z,31.57
2022-12-09T12:40:36.024Z,31.07
2022-12-09T12:43:29.908Z,33.80
2022-12-09T12:46:18.427Z,32.30
2022-12-09T12:48:55.303Z,33.07
2022-12-09T12:51:30.295Z,33.27
2022-12-09T12:57:25.160Z,31.57
2022-12-09T12:59:58.940Z,32.10
2022-12-09T13:02:36.639Z,32.30
2022-12-09T13:05:06.132Z,32.40
2022-12-09T13:07:40.968Z,32.63
2022-12-09T13:10:24.766Z,31.83
2022-12-09T13:31:53.272Z,34.27
2022-12-09T13:49:40.606Z,33.60
